createdAt,value
2022-11-10T00:02:02.930Z,101445.64
2022-11-10T00:05:12.551Z,101448.25
2022-11-10T00:08:21.967Z,101446.20
2022-11-10T00:11:30.974Z,101447.19
2022-11-10T00:14:58.238Z,101453.30
2022-11-10T00:18:07.612Z,101461.13
2022-11-10T00:21:18.416Z,101469.73
2022-11-10T00:24:27.686Z,101470.83
2022-11-10T00:27:37.025Z,101473.42
2022-11-10T00:30:46.943Z,101479.34
2022-11-10T00:33:56.312Z,101481.31
2022-11-10T00:37:05.445Z,101486.39
2022-11-10T00:40:15.424Z,101489.03
2022-11-10T00:43:26.748Z,101488.66
2022-11-10T00:46:36.528Z,101487.86
2022-11-10T00:49:45.720Z,101482.89
2022-11-10T00:52:55.108Z,101488.70
2022-11-10T00:56:04.780Z,101493.77
2022-11-10T00:59:13.955Z,101488.93
2022-11-10T01:02:23.464Z,101493.64
2022-11-10T01:05:32.772Z,101497.87
2022-11-10T01:08:43.037Z,101505.06
2022-11-10T01:11:52.211Z,101509.27
2022-11-10T01:15:01.589Z,101509.24
2022-11-10T01:18:11.112Z,101507.92
2022-11-10T01:21:20.675Z,101503.01
2022-11-10T01:24:29.626Z,101501.64
2022-11-10T01:27:38.993Z,101499.02
2022-11-10T01:30:48.120Z,101495.23
2022-11-10T01:33:57.597Z,101494.79
2022-11-10T01:37:07.350Z,101498.09
2022-11-10T01:40:17.977Z,101501.94
2022-11-10T01:43:28.864Z,101503.00
2022-11-10T01:46:38.354Z,101502.88
2022-11-10T01:49:48.758Z,101499.88
2022-11-10T01:53:02.291Z,101496.98
2022-11-10T01:56:15.214Z,101496.11
2022-11-10T01:59:27.701Z,101494.55
2022-11-10T02:02:43.703Z,101490.08
2022-11-10T02:05:54.245Z,101486.73
2022-11-10T02:09:03.839Z,101491.73
2022-11-10T02:12:13.617Z,101489.59
2022-11-10T02:15:23.213Z,101489.64
2022-11-10T02:18:32.748Z,101489.91
2022-11-10T02:21:43.117Z,101492.89
2022-11-10T02:24:52.439Z,101494.13
2022-11-10T02:28:01.923Z,101492.50
2022-11-10T02:31:11.227Z,101492.89
2022-11-10T02:34:20.981Z,101494.30
2022-11-10T02:37:30.441Z,101494.98
2022-11-10T02:40:40.058Z,101495.89
2022-11-10T02:43:50.601Z,101495.46
2022-11-10T02:47:00.376Z,101489.57
2022-11-10T02:50:11.882Z,101492.11
2022-11-10T02:53:21.864Z,101494.39
2022-11-10T02:56:31.382Z,101499.05
2022-11-10T02:59:41.166Z,101501.80
2022-11-10T03:02:50.753Z,101505.11
2022-11-10T03:06:00.690Z,101501.89
2022-11-10T03:09:10.580Z,101500.42
2022-11-10T03:12:20.449Z,101501.97
2022-11-10T03:15:30.980Z,101499.63
2022-11-10T03:18:40.618Z,101498.88
2022-11-10T03:21:49.446Z,101501.81
2022-11-10T03:24:59.481Z,101511.89
2022-11-10T03:28:08.642Z,101520.02
2022-11-10T03:31:18.046Z,101521.02
2022-11-10T03:34:31.659Z,101518.89
2022-11-10T03:37:45.025Z,101525.32
2022-11-10T03:41:18.029Z,101528.95
2022-11-10T03:44:24.659Z,101535.96
2022-11-10T03:47:34.939Z,101547.34
2022-11-10T03:50:45.268Z,101552.36
2022-11-10T03:53:55.389Z,101555.79
2022-11-10T03:57:05.306Z,101558.85
2022-11-10T04:00:17.465Z,101561.12
2022-11-10T04:03:27.600Z,101562.27
2022-11-10T04:07:09.939Z,101571.95
2022-11-10T04:10:20.193Z,101582.06
2022-11-10T04:13:47.384Z,101587.23
2022-11-10T04:16:56.972Z,101592.48
2022-11-10T04:20:07.029Z,101591.54
2022-11-10T04:23:30.758Z,101597.35
2022-11-10T04:26:43.155Z,101605.25
2022-11-10T04:29:52.915Z,101616.02
2022-11-10T04:33:02.793Z,101624.43
2022-11-10T04:36:14.790Z,101625.11
2022-11-10T04:39:24.722Z,101625.28
2022-11-10T04:42:34.203Z,101624.91
2022-11-10T04:45:44.140Z,101629.11
2022-11-10T04:48:54.727Z,101632.83
2022-11-10T04:52:04.060Z,101635.24
2022-11-10T04:55:13.649Z,101634.52
2022-11-10T04:58:22.803Z,101634.64
2022-11-10T05:01:33.260Z,101634.85
2022-11-10T05:04:43.450Z,101637.24
2022-11-10T05:07:53.183Z,101632.45
2022-11-10T05:11:03.114Z,101633.14
2022-11-10T05:14:12.520Z,101635.14
2022-11-10T05:17:21.861Z,101638.17
2022-11-10T05:20:31.602Z,101639.69
2022-11-10T05:23:44.389Z,101644.51
2022-11-10T05:26:53.570Z,101648.10
2022-11-10T05:30:04.037Z,101653.52
2022-11-10T05:33:13.524Z,101649.73
2022-11-10T05:36:23.512Z,101656.09
2022-11-10T05:39:33.046Z,101657.84
2022-11-10T05:42:47.643Z,101655.89
2022-11-10T05:45:56.951Z,101655.27
2022-11-10T05:49:06.551Z,101655.61
2022-11-10T05:52:15.213Z,101658.52
2022-11-10T05:55:26.028Z,101663.91
2022-11-10T05:58:35.569Z,101668.95
2022-11-10T06:01:45.004Z,101667.41
2022-11-10T06:04:54.585Z,101671.58
2022-11-10T06:08:05.237Z,101674.84
2022-11-10T06:11:14.056Z,101677.59
2022-11-10T06:14:23.057Z,101683.02
2022-11-10T06:17:31.691Z,101695.83
2022-11-10T06:20:41.051Z,101698.04
2022-11-10T06:23:50.766Z,101702.45
2022-11-10T06:26:59.608Z,101703.73
2022-11-10T06:30:11.768Z,101711.91
2022-11-10T06:33:20.980Z,101717.37
2022-11-10T06:36:30.507Z,101720.48
2022-11-10T06:39:39.879Z,101724.56
2022-11-10T06:42:49.244Z,101726.56
2022-11-10T06:45:59.821Z,101731.92
2022-11-10T06:49:09.318Z,101730.70
2022-11-10T06:52:18.299Z,101737.83
2022-11-10T06:55:28.148Z,101742.70
2022-11-10T06:58:37.393Z,101748.65
2022-11-10T07:01:46.626Z,101749.30
2022-11-10T07:04:55.672Z,101754.30
2022-11-10T07:08:10.147Z,101762.02
2022-11-10T07:11:19.821Z,101767.11
2022-11-10T07:14:29.483Z,101769.76
2022-11-10T07:17:44.351Z,101772.42
2022-11-10T07:20:53.266Z,101775.59
2022-11-10T07:24:02.519Z,101778.93
2022-11-10T07:27:11.665Z,101782.72
2022-11-10T07:30:21.621Z,101781.08
2022-11-10T07:33:30.908Z,101784.79
2022-11-10T07:36:41.042Z,101791.20
2022-11-10T07:39:51.584Z,101792.33
2022-11-10T07:43:01.900Z,101802.35
2022-11-10T07:46:13.027Z,101807.91
2022-11-10T07:49:22.556Z,101812.09
2022-11-10T07:52:32.228Z,101813.58
2022-11-10T07:55:42.789Z,101814.80
2022-11-10T07:58:51.873Z,101817.69
2022-11-10T08:02:01.203Z,101815.98
2022-11-10T08:05:11.871Z,101817.79
2022-11-10T08:08:22.038Z,101827.30
2022-11-10T08:11:31.043Z,101830.73
2022-11-10T08:14:40.278Z,101837.89
2022-11-10T08:17:49.252Z,101842.63
2022-11-10T08:20:58.554Z,101842.42
2022-11-10T08:24:09.104Z,101846.62
2022-11-10T08:27:18.930Z,101850.55
2022-11-10T08:30:29.784Z,101851.45
2022-11-10T08:33:39.017Z,101858.85
2022-11-10T08:36:48.444Z,101857.30
2022-11-10T08:39:57.996Z,101862.92
2022-11-10T08:43:08.860Z,101870.20
2022-11-10T08:46:18.737Z,101874.30
2022-11-10T08:49:28.772Z,101872.10
2022-11-10T08:52:37.659Z,101872.08
2022-11-10T08:55:47.368Z,101872.78
2022-11-10T08:58:56.611Z,101875.77
2022-11-10T09:02:06.497Z,101880.24
2022-11-10T09:05:15.933Z,101880.42
2022-11-10T09:08:25.515Z,101882.30
2022-11-10T09:11:35.010Z,101884.63
2022-11-10T09:14:45.526Z,101888.02
2022-11-10T09:17:54.723Z,101894.36
2022-11-10T09:21:06.806Z,101899.02
2022-11-10T09:24:16.788Z,101901.83
2022-11-10T09:27:26.599Z,101907.61
2022-11-10T09:30:36.342Z,101910.60
2022-11-10T09:33:45.929Z,101918.31
2022-11-10T09:36:55.679Z,101925.87
2022-11-10T09:40:06.485Z,101931.20
2022-11-10T09:43:28.224Z,101935.45
2022-11-10T09:46:42.150Z,101939.48
2022-11-10T09:49:55.210Z,101938.75
2022-11-10T09:53:06.778Z,101940.98
2022-11-10T09:56:22.006Z,101944.52
2022-11-10T09:59:35.096Z,101946.98
2022-11-10T10:02:50.733Z,101944.48
2022-11-10T10:06:08.825Z,101951.65
2022-11-10T10:09:31.263Z,101951.20
2022-11-10T10:12:59.335Z,101956.79
2022-11-10T10:16:18.591Z,101956.26
2022-11-10T10:19:36.918Z,101957.07
2022-11-10T10:22:57.915Z,101952.44
2022-11-10T10:26:11.896Z,101952.94
2022-11-10T10:29:25.384Z,101949.81
2022-11-10T10:32:34.930Z,101949.80
2022-11-10T10:35:46.473Z,101945.59
2022-11-10T10:38:58.548Z,101945.83
2022-11-10T10:42:17.409Z,101947.60
2022-11-10T10:45:29.108Z,101948.80
2022-11-10T10:48:38.400Z,101947.73
2022-11-10T10:51:48.165Z,101947.58
2022-11-10T10:55:08.690Z,101945.13
2022-11-10T10:58:28.436Z,101944.73
2022-11-10T11:01:39.529Z,101945.77
2022-11-10T11:04:49.772Z,101946.24
2022-11-10T11:08:00.445Z,101949.38
2022-11-10T11:11:13.808Z,101953.50
2022-11-10T11:14:28.398Z,101951.07
2022-11-10T11:17:37.744Z,101950.20
2022-11-10T11:20:52.308Z,101952.02
2022-11-10T11:24:20.496Z,101957.55
2022-11-10T11:27:39.324Z,101958.97
2022-11-10T11:31:00.103Z,101965.71
2022-11-10T11:34:16.989Z,101971.05
2022-11-10T11:37:34.609Z,101967.19
2022-11-10T11:40:50.954Z,101968.54
2022-11-10T11:44:14.300Z,101969.73
2022-11-10T11:47:39.066Z,101971.58
2022-11-10T11:50:55.552Z,101973.88
2022-11-10T11:54:21.572Z,101973.00
2022-11-10T11:57:41.029Z,101974.86
2022-11-10T12:01:01.973Z,101981.65
2022-11-10T12:04:41.197Z,101983.80
2022-11-10T12:07:59.566Z,101983.58
2022-11-10T12:11:21.649Z,101986.92
2022-11-10T12:14:43.905Z,101987.75
2022-11-10T12:18:01.029Z,101991.09
2022-11-10T12:21:25.019Z,101992.87
2022-11-10T12:24:54.132Z,101999.86
2022-11-10T12:28:13.894Z,101998.55
2022-11-10T12:31:26.113Z,101998.01
2022-11-10T12:34:40.859Z,102007.25
2022-11-10T12:37:54.134Z,102010.09
2022-11-10T12:41:09.128Z,102014.23
2022-11-10T12:44:27.192Z,102016.23
2022-11-10T12:47:42.702Z,102017.70
2022-11-10T12:50:59.845Z,102024.42
2022-11-10T12:54:16.661Z,102028.36
2022-11-10T12:57:30.121Z,102031.67
2022-11-10T13:00:44.888Z,102039.48
2022-11-10T13:03:59.506Z,102038.76
2022-11-10T13:07:13.344Z,102046.76
2022-11-10T13:10:29.092Z,102045.01
2022-11-10T13:13:48.200Z,102046.02
2022-11-10T13:16:56.747Z,102046.46
2022-11-10T13:20:29.970Z,102046.02
2022-11-10T13:23:56.583Z,102048.58
2022-11-10T13:27:07.056Z,102054.70
2022-11-10T13:30:40.308Z,102050.98
2022-11-10T13:34:07.048Z,102049.86
2022-11-10T13:37:50.754Z,102053.45
2022-11-10T13:41:21.658Z,102061.44
2022-11-10T13:44:33.290Z,102062.25
2022-11-10T13:47:53.272Z,102066.03
2022-11-10T13:51:15.126Z,102074.04
2022-11-10T13:54:46.211Z,102075.39
2022-11-10T13:58:04.898Z,102080.80
2022-11-10T14:01:30.729Z,102081.26
2022-11-10T14:04:45.765Z,102083.88
2022-11-10T14:07:57.077Z,102086.77
2022-11-10T14:11:13.177Z,102088.72
2022-11-10T14:14:27.535Z,102094.98
2022-11-10T14:17:44.296Z,102103.91
2022-11-10T14:20:59.174Z,102110.63
2022-11-10T14:24:16.545Z,102113.31
2022-11-10T14:27:29.163Z,102120.10
2022-11-10T14:30:39.002Z,102123.58
2022-11-10T14:33:56.819Z,102122.23
2022-11-10T14:37:08.485Z,102124.19
2022-11-10T14:40:21.055Z,102123.48
2022-11-10T14:43:32.835Z,102128.06
2022-11-10T14:46:43.072Z,102135.39
2022-11-10T14:50:06.817Z,102144.93
2022-11-10T14:53:23.235Z,102147.23
2022-11-10T14:56:37.366Z,102148.48
2022-11-10T14:59:47.160Z,102145.20
2022-11-10T15:02:58.905Z,102155.19
2022-11-10T15:06:11.939Z,102156.11
2022-11-10T15:09:27.321Z,102159.76
2022-11-10T15:12:41.817Z,102161.33
2022-11-10T15:15:54.059Z,102164.61
2022-11-10T15:19:23.583Z,102166.98
2022-11-10T15:22:35.541Z,102171.13
2022-11-10T15:25:53.003Z,102172.80
2022-11-10T15:29:03.158Z,102173.64
2022-11-10T15:32:20.386Z,102177.86
2022-11-10T15:35:33.407Z,102180.94
2022-11-10T15:38:43.753Z,102181.60
2022-11-10T15:41:58.830Z,102183.42
2022-11-10T15:45:09.024Z,102184.24
2022-11-10T15:48:20.165Z,102189.85
2022-11-10T15:51:29.428Z,102196.41
2022-11-10T15:54:39.750Z,102201.52
2022-11-10T15:57:49.006Z,102203.02
2022-11-10T16:00:59.828Z,102211.25
2022-11-10T16:04:12.084Z,102213.84
2022-11-10T16:07:21.012Z,102218.35
2022-11-10T16:10:30.688Z,102225.21
2022-11-10T16:13:39.898Z,102230.67
2022-11-10T16:16:49.539Z,102242.11
2022-11-10T16:19:59.550Z,102253.69
2022-11-10T16:23:08.464Z,102258.58
2022-11-10T16:26:19.774Z,102261.92
2022-11-10T16:29:28.942Z,102268.85
2022-11-10T16:32:38.281Z,102272.29
2022-11-10T16:35:50.246Z,102283.49
2022-11-10T16:39:00.196Z,102288.94
2022-11-10T16:42:10.363Z,102294.66
2022-11-10T16:45:22.099Z,102306.61
2022-11-10T16:48:34.049Z,102309.89
2022-11-10T16:51:48.621Z,102313.71
2022-11-10T16:54:58.237Z,102321.91
2022-11-10T16:58:07.371Z,102324.68
2022-11-10T17:01:21.147Z,102327.36
2022-11-10T17:04:31.048Z,102333.52
2022-11-10T17:07:40.505Z,102341.25
2022-11-10T17:14:14.611Z,102346.86
2022-11-10T17:17:25.158Z,102348.15
2022-11-10T17:20:38.656Z,102351.46
2022-11-10T17:23:48.159Z,102350.18
2022-11-10T17:26:57.595Z,102357.01
2022-11-10T17:30:10.583Z,102366.21
2022-11-10T17:33:20.510Z,102371.33
2022-11-10T17:36:31.128Z,102371.22
2022-11-10T17:39:41.597Z,102367.61
2022-11-10T17:42:51.885Z,102369.07
2022-11-10T17:46:01.642Z,102369.72
2022-11-10T17:49:11.379Z,102374.59
2022-11-10T17:52:22.008Z,102382.02
2022-11-10T17:55:34.432Z,102387.56
2022-11-10T17:58:44.175Z,102393.87
2022-11-10T18:01:53.197Z,102398.16
2022-11-10T18:05:02.539Z,102401.15
2022-11-10T18:08:11.588Z,102404.11
2022-11-10T18:11:21.003Z,102408.02
2022-11-10T18:14:34.054Z,102410.05
2022-11-10T18:17:43.934Z,102413.30
2022-11-10T18:20:52.512Z,102410.84
2022-11-10T18:24:02.153Z,102416.83
2022-11-10T18:27:11.112Z,102424.12
2022-11-10T18:30:20.354Z,102428.19
2022-11-10T18:33:29.632Z,102428.30
2022-11-10T18:36:38.616Z,102424.09
2022-11-10T18:39:48.381Z,102430.39
2022-11-10T18:43:05.896Z,102435.38
2022-11-10T18:46:16.761Z,102435.12
2022-11-10T18:49:26.616Z,102442.65
2022-11-10T18:52:36.132Z,102451.83
2022-11-10T18:55:54.255Z,102447.80
2022-11-10T18:59:03.589Z,102450.69
2022-11-10T19:02:14.539Z,102451.13
2022-11-10T19:05:23.671Z,102456.28
2022-11-10T19:08:34.533Z,102459.77
2022-11-10T19:11:44.295Z,102460.42
2022-11-10T19:14:53.091Z,102458.42
2022-11-10T19:18:03.754Z,102461.78
2022-11-10T19:21:15.228Z,102464.23
2022-11-10T19:24:28.087Z,102467.90
2022-11-10T19:27:38.149Z,102474.69
2022-11-10T19:30:47.394Z,102465.31
2022-11-10T19:33:57.982Z,102470.86
2022-11-10T19:37:07.788Z,102470.02
2022-11-10T19:40:17.754Z,102470.70
2022-11-10T19:43:27.725Z,102476.34
2022-11-10T19:46:39.246Z,102480.23
2022-11-10T19:49:49.448Z,102482.71
2022-11-10T19:52:58.709Z,102480.31
2022-11-10T19:56:10.962Z,102481.15
2022-11-10T19:59:21.683Z,102489.14
2022-11-10T20:02:30.901Z,102487.55
2022-11-10T20:05:41.143Z,102487.50
2022-11-10T20:08:51.561Z,102493.04
2022-11-10T20:12:01.481Z,102502.36
2022-11-10T20:15:13.345Z,102499.98
2022-11-10T20:18:22.443Z,102508.89
2022-11-10T20:21:32.406Z,102514.44
2022-11-10T20:24:41.537Z,102515.80
2022-11-10T20:27:50.970Z,102522.48
2022-11-10T20:31:01.190Z,102533.77
2022-11-10T20:34:11.582Z,102540.09
2022-11-10T20:37:21.456Z,102545.50
2022-11-10T20:40:44.044Z,102543.63
2022-11-10T20:43:53.584Z,102548.77
2022-11-10T20:47:03.056Z,102549.52
2022-11-10T20:50:16.388Z,102556.59
2022-11-10T20:53:29.576Z,102560.61
2022-11-10T20:56:39.207Z,102566.11
2022-11-10T20:59:48.395Z,102563.89
2022-11-10T21:02:57.999Z,102565.67
2022-11-10T21:06:09.402Z,102564.77
2022-11-10T21:09:19.974Z,102569.33
2022-11-10T21:12:46.606Z,102567.29
2022-11-10T21:15:57.630Z,102568.84
2022-11-10T21:19:07.577Z,102570.31
2022-11-10T21:22:17.330Z,102568.91
2022-11-10T21:25:26.610Z,102569.63
2022-11-10T21:28:36.867Z,102566.52
2022-11-10T21:31:46.230Z,102569.36
2022-11-10T21:34:55.847Z,102570.20
2022-11-10T21:38:05.276Z,102573.23
2022-11-10T21:41:14.472Z,102583.80
2022-11-10T21:44:24.995Z,102582.13
2022-11-10T21:47:34.923Z,102586.70
2022-11-10T21:50:43.247Z,102585.29
2022-11-10T21:53:52.828Z,102582.95
2022-11-10T21:57:01.758Z,102598.61
2022-11-10T22:00:14.407Z,102590.03
2022-11-10T22:03:23.569Z,102600.80
2022-11-10T22:06:46.644Z,102599.14
2022-11-10T22:10:17.329Z,102597.17
2022-11-10T22:13:44.008Z,102608.05
2022-11-10T22:17:11.445Z,102604.61
2022-11-10T22:20:20.990Z,102606.68
2022-11-10T22:23:47.194Z,102603.15
2022-11-10T22:26:57.940Z,102600.29
2022-11-10T22:30:08.436Z,102588.81
2022-11-10T22:33:29.390Z,102590.66
2022-11-10T22:36:38.019Z,102596.54
2022-11-10T22:40:03.992Z,102599.52
2022-11-10T22:43:29.833Z,102597.91
2022-11-10T22:46:40.591Z,102602.13
2022-11-10T22:49:49.499Z,102599.18
2022-11-10T22:52:58.692Z,102602.86
2022-11-10T22:56:07.835Z,102601.34
2022-11-10T22:59:17.467Z,102595.34
2022-11-10T23:02:26.426Z,102604.05
2022-11-10T23:05:38.304Z,102603.92
2022-11-10T23:08:46.619Z,102602.96
2022-11-10T23:11:56.326Z,102606.81
2022-11-10T23:15:06.307Z,102608.83
2022-11-10T23:18:15.616Z,102601.71
2022-11-10T23:21:26.741Z,102604.81
2022-11-10T23:24:35.269Z,102605.37
2022-11-10T23:27:44.417Z,102600.48
2022-11-10T23:30:53.621Z,102601.84
2022-11-10T23:34:02.664Z,102596.58
2022-11-10T23:37:12.527Z,102595.85
2022-11-10T23:40:22.493Z,102591.16
2022-11-10T23:43:32.325Z,102586.00
2022-11-10T23:46:41.970Z,102579.40
2022-11-10T23:49:51.633Z,102587.87
2022-11-10T23:53:02.641Z,102589.58
2022-11-10T23:56:14.945Z,102589.95
2022-11-10T23:59:23.989Z,102583.52
